<?xml version="1.0" encoding="UTF-8" standalone="no" ?><gpx xmlns="http://www.topografix.com/GPX/1/1" xmlns:gpxx="http://www.garmin.com/xmlschemas/GpxExtensions/v3" xmlns:wptx1="http://www.garmin.com/xmlschemas/WaypointExtension/v1" xmlns:gpxtpx="http://www.garmin.com/xmlschemas/TrackPointExtension/v1" creator="eTrex 20" version="1.1" xmlns:xsi="http://www.w3.org/2001/XMLSchema-instance" xsi:schemaLocation="http://www.topografix.com/GPX/1/1 http://www.topografix.com/GPX/1/1/gpx.xsd http://www.garmin.com/xmlschemas/GpxExtensions/v3 http://www8.garmin.com/xmlschemas/GpxExtensionsv3.xsd http://www.garmin.com/xmlschemas/WaypointExtension/v1 http://www8.garmin.com/xmlschemas/WaypointExtensionv1.xsd http://www.garmin.com/xmlschemas/TrackPointExtension/v1 http://www.garmin.com/xmlschemas/TrackPointExtensionv1.xsd"><metadata><link href="http://www.garmin.com"><text>Garmin International</text></link><time>2014-06-23T18:23:45Z</time></metadata><trk><name>2014-06-23 20:23:40</name><trkseg><trkpt lat="46.2064739596" lon="7.4399139639"><ele>388.99</ele><time>2014-06-23T16:36:34Z</time></trkpt><trkpt lat="46.4684210904" lon="6.8299052864"><ele>377.94</ele><time>2014-06-23T16:36:50Z</time></trkpt><trkpt lat="46.4685403649" lon="6.8295099121"><ele>378.42</ele><time>2014-06-23T16:37:02Z</time></trkpt><trkpt lat="46.4685890637" lon="6.8292782363"><ele>379.86</ele><time>2014-06-23T16:37:16Z</time></trkpt><trkpt lat="46.4686504193" lon="6.8288888130"><ele>380.34</ele><time>2014-06-23T16:37:26Z</time></trkpt><trkpt lat="46.4686543588" lon="6.8288306426"><ele>380.82</ele><time>2014-06-23T16:37:34Z</time></trkpt><trkpt lat="46.4686821867" lon="6.8285375275"><ele>380.34</ele><time>2014-06-23T16:37:43Z</time></trkpt><trkpt lat="46.4687100146" lon="6.8277690746"><ele>380.34</ele><time>2014-06-23T16:37:58Z</time></trkpt><trkpt lat="46.4686460607" lon="6.8267179001"><ele>383.22</ele><time>2014-06-23T16:38:14Z</time></trkpt><trkpt lat="46.4685909078" lon="6.8258004170"><ele>387.55</ele><time>2014-06-23T16:38:29Z</time></trkpt><trkpt lat="46.4684870560" lon="6.8248813413"><ele>391.39</ele><time>2014-06-23T16:38:45Z</time></trkpt><trkpt lat="46.4684606530" lon="6.8239793647"><ele>393.32</ele><time>2014-06-23T16:39:01Z</time></trkpt><trkpt lat="46.4687071647" lon="6.8232601974"><ele>396.68</ele><time>2014-06-23T16:39:17Z</time></trkpt><trkpt lat="46.4692166168" lon="6.8227970973"><ele>400.05</ele><time>2014-06-23T16:39:36Z</time></trkpt><trkpt lat="46.4696280845" lon="6.8224920798"><ele>401.01</ele><time>2014-06-23T16:39:48Z</time></trkpt><trkpt lat="46.4700875804" lon="6.8216974754"><ele>397.16</ele><time>2014-06-23T16:40:00Z</time></trkpt><trkpt lat="46.4703866467" lon="6.8201641738"><ele>392.84</ele><time>2014-06-23T16:40:13Z</time></trkpt><trkpt lat="46.4704916719" lon="6.8179067597"><ele>391.87</ele><time>2014-06-23T16:40:32Z</time></trkpt><trkpt lat="46.4705650136" lon="6.8162567820"><ele>396.68</ele><time>2014-06-23T16:40:51Z</time></trkpt><trkpt lat="46.4706987049" lon="6.8145129271"><ele>398.60</ele><time>2014-06-23T16:41:13Z</time></trkpt><trkpt lat="46.4708201587" lon="6.8138340767"><ele>398.60</ele><time>2014-06-23T16:41:22Z</time></trkpt><trkpt lat="46.4710604679" lon="6.8131971359"><ele>400.53</ele><time>2014-06-23T16:41:36Z</time></trkpt><trkpt lat="46.4712916408" lon="6.8125046231"><ele>405.81</ele><time>2014-06-23T16:41:56Z</time></trkpt><trkpt lat="46.4713755436" lon="6.8125523161"><ele>406.77</ele><time>2014-06-23T16:42:02Z</time></trkpt><trkpt lat="46.4713434409" lon="6.8130614329"><ele>410.14</ele><time>2014-06-23T16:42:19Z</time></trkpt><trkpt lat="46.4713709336" lon="6.8136207573"><ele>414.47</ele><time>2014-06-23T16:42:37Z</time></trkpt><trkpt lat="46.4714491367" lon="6.8141240906"><ele>416.87</ele><time>2014-06-23T16:42:54Z</time></trkpt><trkpt lat="46.4715768769" lon="6.8146975804"><ele>419.27</ele><time>2014-06-23T16:43:14Z</time></trkpt><trkpt lat="46.4717312716" lon="6.8151686434"><ele>421.68</ele><time>2014-06-23T16:43:31Z</time></trkpt><trkpt lat="46.4718787093" lon="6.8156472500"><ele>425.04</ele><time>2014-06-23T16:43:50Z</time></trkpt><trkpt lat="46.4718865044" lon="6.8156617507"><ele>425.04</ele><time>2014-06-23T16:43:51Z</time></trkpt><trkpt lat="46.4719544817" lon="6.8156319950"><ele>425.04</ele><time>2014-06-23T16:43:56Z</time></trkpt><trkpt lat="46.4720464312" lon="6.8155526184"><ele>426.00</ele><time>2014-06-23T16:44:02Z</time></trkpt><trkpt lat="46.4722237084" lon="6.8153522909"><ele>428.40</ele><time>2014-06-23T16:44:14Z</time></trkpt><trkpt lat="46.4722139016" lon="6.8152325973"><ele>429.85</ele><time>2014-06-23T16:44:19Z</time></trkpt><trkpt lat="46.4721164200" lon="6.8148697447"><ele>433.69</ele><time>2014-06-23T16:44:36Z</time></trkpt><trkpt lat="46.4720460121" lon="6.8144287728"><ele>437.54</ele><time>2014-06-23T16:44:55Z</time></trkpt><trkpt lat="46.4719844051" lon="6.8140127789"><ele>439.46</ele><time>2014-06-23T16:45:10Z</time></trkpt><trkpt lat="46.4718761109" lon="6.8133192603"><ele>439.94</ele><time>2014-06-23T16:45:27Z</time></trkpt><trkpt lat="46.4718103129" lon="6.8124273419"><ele>438.50</ele><time>2014-06-23T16:45:40Z</time></trkpt><trkpt lat="46.4718519710" lon="6.8114053365"><ele>438.50</ele><time>2014-06-23T16:45:55Z</time></trkpt><trkpt lat="46.4719221275" lon="6.8106960598"><ele>438.50</ele><time>2014-06-23T16:46:06Z</time></trkpt><trkpt lat="46.4720296673" lon="6.8101857696"><ele>442.82</ele><time>2014-06-23T16:46:18Z</time></trkpt><trkpt lat="46.4721716568" lon="6.8097188976"><ele>448.59</ele><time>2014-06-23T16:46:37Z</time></trkpt><trkpt lat="46.4722902607" lon="6.8093330786"><ele>453.40</ele><time>2014-06-23T16:46:55Z</time></trkpt><trkpt lat="46.4724740759" lon="6.8089761771"><ele>458.21</ele><time>2014-06-23T16:47:16Z</time></trkpt><trkpt lat="46.4725661092" lon="6.8085870892"><ele>458.69</ele><time>2014-06-23T16:47:32Z</time></trkpt><trkpt lat="46.4727226831" lon="6.8078452069"><ele>460.13</ele><time>2014-06-23T16:47:51Z</time></trkpt><trkpt lat="46.4728267025" lon="6.8069883250"><ele>461.09</ele><time>2014-06-23T16:48:11Z</time></trkpt><trkpt lat="46.4729624055" lon="6.8065787014"><ele>465.42</ele><time>2014-06-23T16:48:29Z</time></trkpt><trkpt lat="46.4730536845" lon="6.8060163595"><ele>465.42</ele><time>2014-06-23T16:48:45Z</time></trkpt><trkpt lat="46.4732054807" lon="6.8052477390"><ele>465.42</ele><time>2014-06-23T16:49:01Z</time></trkpt><trkpt lat="46.4733497333" lon="6.8048059288"><ele>468.78</ele><time>2014-06-23T16:49:16Z</time></trkpt><trkpt lat="46.4734251704" lon="6.8043074571"><ele>468.78</ele><time>2014-06-23T16:49:28Z</time></trkpt><trkpt lat="46.4736961573" lon="6.8035126850"><ele>469.74</ele><time>2014-06-23T16:49:46Z</time></trkpt><trkpt lat="46.4738000929" lon="6.8028055038"><ele>474.55</ele><time>2014-06-23T16:50:05Z</time></trkpt><trkpt lat="46.4737985004" lon="6.8027395383"><ele>475.51</ele><time>2014-06-23T16:50:07Z</time></trkpt><trkpt lat="46.4738697466" lon="6.8027873989"><ele>476.95</ele><time>2014-06-23T16:50:14Z</time></trkpt><trkpt lat="46.4738740213" lon="6.8032377586"><ele>478.87</ele><time>2014-06-23T16:50:30Z</time></trkpt><trkpt lat="46.4737886935" lon="6.8036980089"><ele>483.20</ele><time>2014-06-23T16:50:48Z</time></trkpt><trkpt lat="46.4737366419" lon="6.8039430957"><ele>485.12</ele><time>2014-06-23T16:50:59Z</time></trkpt><trkpt lat="46.4737597760" lon="6.8042086344"><ele>486.56</ele><time>2014-06-23T16:51:10Z</time></trkpt><trkpt lat="46.4737031143" lon="6.8044690602"><ele>489.45</ele><time>2014-06-23T16:51:25Z</time></trkpt><trkpt lat="46.4736952353" lon="6.8044853210"><ele>486.56</ele><time>2014-06-23T16:51:46Z</time></trkpt><trkpt lat="46.4736403339" lon="6.8047221098"><ele>488.01</ele><time>2014-06-23T16:51:59Z</time></trkpt><trkpt lat="46.4735373203" lon="6.8050958589"><ele>491.85</ele><time>2014-06-23T16:52:16Z</time></trkpt><trkpt lat="46.4735114202" lon="6.8054186460"><ele>494.74</ele><time>2014-06-23T16:52:31Z</time></trkpt><trkpt lat="46.4736467041" lon="6.8056720309"><ele>500.50</ele><time>2014-06-23T16:52:49Z</time></trkpt><trkpt lat="46.4738751948" lon="6.8058291916"><ele>504.83</ele><time>2014-06-23T16:53:08Z</time></trkpt><trkpt lat="46.4738958981" lon="6.8058532476"><ele>505.31</ele><time>2014-06-23T16:53:10Z</time></trkpt><trkpt lat="46.4738973230" lon="6.8059042934"><ele>506.75</ele><time>2014-06-23T16:53:22Z</time></trkpt><trkpt lat="46.4738905337" lon="6.8058975041"><ele>507.71</ele><time>2014-06-23T16:53:41Z</time></trkpt><trkpt lat="46.4739030227" lon="6.8059176207"><ele>506.27</ele><time>2014-06-23T16:53:51Z</time></trkpt><trkpt lat="46.4739072975" lon="6.8059345521"><ele>505.79</ele><time>2014-06-23T16:54:06Z</time></trkpt><trkpt lat="46.4739176072" lon="6.8063011765"><ele>511.08</ele><time>2014-06-23T16:54:23Z</time></trkpt><trkpt lat="46.4738552459" lon="6.8066707347"><ele>515.88</ele><time>2014-06-23T16:54:39Z</time></trkpt><trkpt lat="46.4737694990" lon="6.8070605770"><ele>520.21</ele><time>2014-06-23T16:54:57Z</time></trkpt><trkpt lat="46.4738841634" lon="6.8073656783"><ele>524.54</ele><time>2014-06-23T16:55:13Z</time></trkpt><trkpt lat="46.4739133324" lon="6.8077587895"><ele>525.98</ele><time>2014-06-23T16:55:30Z</time></trkpt><trkpt lat="46.4739339519" lon="6.8079949077"><ele>529.34</ele><time>2014-06-23T16:55:41Z</time></trkpt><trkpt lat="46.4741249755" lon="6.8082483765"><ele>530.79</ele><time>2014-06-23T16:55:57Z</time></trkpt><trkpt lat="46.4742531348" lon="6.8084477820"><ele>533.19</ele><time>2014-06-23T16:56:09Z</time></trkpt><trkpt lat="46.4743024204" lon="6.8088437431"><ele>534.15</ele><time>2014-06-23T16:56:24Z</time></trkpt><trkpt lat="46.4743389655" lon="6.8093518540"><ele>534.63</ele><time>2014-06-23T16:56:38Z</time></trkpt><trkpt lat="46.4744100440" lon="6.8101311196"><ele>535.59</ele><time>2014-06-23T16:56:57Z</time></trkpt><trkpt lat="46.4744576532" lon="6.8107636180"><ele>535.59</ele><time>2014-06-23T16:57:12Z</time></trkpt><trkpt lat="46.4744684659" lon="6.8109957967"><ele>537.03</ele><time>2014-06-23T16:57:25Z</time></trkpt><trkpt lat="46.4744711481" lon="6.8110004067"><ele>537.51</ele><time>2014-06-23T16:57:54Z</time></trkpt><trkpt lat="46.4745221939" lon="6.8110188469"><ele>536.07</ele><time>2014-06-23T16:58:16Z</time></trkpt><trkpt lat="46.4745268039" lon="6.8110197689"><ele>535.59</ele><time>2014-06-23T16:58:39Z</time></trkpt><trkpt lat="46.4744944498" lon="6.8110175058"><ele>536.07</ele><time>2014-06-23T16:59:15Z</time></trkpt><trkpt lat="46.4744975511" lon="6.8109970540"><ele>537.51</ele><time>2014-06-23T16:59:49Z</time></trkpt><trkpt lat="46.4744978864" lon="6.8110159971"><ele>537.51</ele><time>2014-06-23T17:00:16Z</time></trkpt><trkpt lat="46.4745033346" lon="6.8110233732"><ele>537.51</ele><time>2014-06-23T17:00:17Z</time></trkpt><trkpt lat="46.4745905064" lon="6.8111035042"><ele>538.96</ele><time>2014-06-23T17:00:24Z</time></trkpt><trkpt lat="46.4747490920" lon="6.8114816956"><ele>545.20</ele><time>2014-06-23T17:00:41Z</time></trkpt><trkpt lat="46.4748237748" lon="6.8115635868"><ele>546.65</ele><time>2014-06-23T17:00:53Z</time></trkpt><trkpt lat="46.4748232719" lon="6.8115662690"><ele>546.65</ele><time>2014-06-23T17:01:13Z</time></trkpt><trkpt lat="46.4748076815" lon="6.8115618266"><ele>546.65</ele><time>2014-06-23T17:01:45Z</time></trkpt><trkpt lat="46.4748210926" lon="6.8115675263"><ele>546.65</ele><time>2014-06-23T17:02:06Z</time></trkpt><trkpt lat="46.4748256188" lon="6.8116524350"><ele>546.65</ele><time>2014-06-23T17:02:10Z</time></trkpt><trkpt lat="46.4748067595" lon="6.8124425132"><ele>543.76</ele><time>2014-06-23T17:02:23Z</time></trkpt><trkpt lat="46.4746759180" lon="6.8134897482"><ele>537.03</ele><time>2014-06-23T17:02:35Z</time></trkpt><trkpt lat="46.4743918553" lon="6.8142184708"><ele>529.82</ele><time>2014-06-23T17:02:42Z</time></trkpt><trkpt lat="46.4743675478" lon="6.8153402209"><ele>521.17</ele><time>2014-06-23T17:02:50Z</time></trkpt><trkpt lat="46.4744188450" lon="6.8154630996"><ele>520.69</ele><time>2014-06-23T17:02:51Z</time></trkpt><trkpt lat="46.4745118842" lon="6.8160696980"><ele>519.25</ele><time>2014-06-23T17:02:56Z</time></trkpt><trkpt lat="46.4744049311" lon="6.8165390845"><ele>518.29</ele><time>2014-06-23T17:03:00Z</time></trkpt><trkpt lat="46.4744616766" lon="6.8179763295"><ele>513.48</ele><time>2014-06-23T17:03:11Z</time></trkpt><trkpt lat="46.4744889177" lon="6.8188379891"><ele>513.96</ele><time>2014-06-23T17:03:19Z</time></trkpt><trkpt lat="46.4744492713" lon="6.8190568406"><ele>514.92</ele><time>2014-06-23T17:03:22Z</time></trkpt><trkpt lat="46.4744889177" lon="6.8193205353"><ele>516.37</ele><time>2014-06-23T17:03:27Z</time></trkpt><trkpt lat="46.4747724775" lon="6.8197168317"><ele>522.13</ele><time>2014-06-23T17:03:47Z</time></trkpt><trkpt lat="46.4748869743" lon="6.8199024908"><ele>522.13</ele><time>2014-06-23T17:03:53Z</time></trkpt><trkpt lat="46.4748381916" lon="6.8202592246"><ele>527.90</ele><time>2014-06-23T17:04:07Z</time></trkpt><trkpt lat="46.4747475833" lon="6.8206622265"><ele>534.63</ele><time>2014-06-23T17:04:26Z</time></trkpt><trkpt lat="46.4748834539" lon="6.8209784757"><ele>538.96</ele><time>2014-06-23T17:04:45Z</time></trkpt><trkpt lat="46.4750337414" lon="6.8212542403"><ele>544.24</ele><time>2014-06-23T17:05:05Z</time></trkpt><trkpt lat="46.4751240984" lon="6.8214611057"><ele>548.09</ele><time>2014-06-23T17:05:20Z</time></trkpt><trkpt lat="46.4752063248" lon="6.8216418196"><ele>552.41</ele><time>2014-06-23T17:05:34Z</time></trkpt><trkpt lat="46.4751996193" lon="6.8218079489"><ele>553.86</ele><time>2014-06-23T17:05:43Z</time></trkpt><trkpt lat="46.4752276149" lon="6.8221758306"><ele>557.22</ele><time>2014-06-23T17:06:02Z</time></trkpt><trkpt lat="46.4752649143" lon="6.8225882202"><ele>560.59</ele><time>2014-06-23T17:06:24Z</time></trkpt><trkpt lat="46.4753625635" lon="6.8228763901"><ele>564.43</ele><time>2014-06-23T17:06:41Z</time></trkpt><trkpt lat="46.4753698558" lon="6.8228907231"><ele>564.91</ele><time>2014-06-23T17:06:42Z</time></trkpt><trkpt lat="46.4754954167" lon="6.8230008613"><ele>567.80</ele><time>2014-06-23T17:06:55Z</time></trkpt><trkpt lat="46.4755972568" lon="6.8229882885"><ele>568.28</ele><time>2014-06-23T17:07:03Z</time></trkpt><trkpt lat="46.4757231530" lon="6.8230620492"><ele>572.60</ele><time>2014-06-23T17:07:14Z</time></trkpt><trkpt lat="46.4758450259" lon="6.8232363090"><ele>576.45</ele><time>2014-06-23T17:07:26Z</time></trkpt><trkpt lat="46.4759403281" lon="6.8235018477"><ele>580.29</ele><time>2014-06-23T17:07:41Z</time></trkpt><trkpt lat="46.4760428388" lon="6.8237378821"><ele>582.70</ele><time>2014-06-23T17:07:54Z</time></trkpt><trkpt lat="46.4761912823" lon="6.8241433986"><ele>581.73</ele><time>2014-06-23T17:08:08Z</time></trkpt><trkpt lat="46.4762509614" lon="6.8245299719"><ele>585.10</ele><time>2014-06-23T17:08:25Z</time></trkpt><trkpt lat="46.4762576669" lon="6.8246384338"><ele>586.06</ele><time>2014-06-23T17:08:30Z</time></trkpt><trkpt lat="46.4762310125" lon="6.8247603904"><ele>587.02</ele><time>2014-06-23T17:08:36Z</time></trkpt><trkpt lat="46.4762769453" lon="6.8248620629"><ele>588.95</ele><time>2014-06-23T17:08:42Z</time></trkpt><trkpt lat="46.4763157535" lon="6.8250144459"><ele>589.91</ele><time>2014-06-23T17:08:48Z</time></trkpt><trkpt lat="46.4763182681" lon="6.8251850177"><ele>588.95</ele><time>2014-06-23T17:08:54Z</time></trkpt><trkpt lat="46.4764881693" lon="6.8256454356"><ele>587.50</ele><time>2014-06-23T17:09:09Z</time></trkpt><trkpt lat="46.4766552206" lon="6.8261649460"><ele>584.14</ele><time>2014-06-23T17:09:26Z</time></trkpt><trkpt lat="46.4767163247" lon="6.8265219312"><ele>584.14</ele><time>2014-06-23T17:09:36Z</time></trkpt><trkpt lat="46.4767096192" lon="6.8267318979"><ele>583.66</ele><time>2014-06-23T17:09:44Z</time></trkpt><trkpt lat="46.4767330047" lon="6.8268329836"><ele>583.66</ele><time>2014-06-23T17:09:49Z</time></trkpt><trkpt lat="46.4767917618" lon="6.8266882282"><ele>583.66</ele><time>2014-06-23T17:09:57Z</time></trkpt><trkpt lat="46.4768464956" lon="6.8264511880"><ele>585.58</ele><time>2014-06-23T17:10:08Z</time></trkpt><trkpt lat="46.4768055081" lon="6.8260491919"><ele>590.39</ele><time>2014-06-23T17:10:24Z</time></trkpt><trkpt lat="46.4768073522" lon="6.8257691525"><ele>599.04</ele><time>2014-06-23T17:10:36Z</time></trkpt><trkpt lat="46.4768827055" lon="6.8256569188"><ele>601.44</ele><time>2014-06-23T17:10:44Z</time></trkpt><trkpt lat="46.4769811090" lon="6.8254172802"><ele>603.85</ele><time>2014-06-23T17:10:57Z</time></trkpt><trkpt lat="46.4770377707" lon="6.8251453713"><ele>605.29</ele><time>2014-06-23T17:11:14Z</time></trkpt><trkpt lat="46.4770529419" lon="6.8251056410"><ele>605.29</ele><time>2014-06-23T17:11:17Z</time></trkpt><trkpt lat="46.4770677779" lon="6.8250277732"><ele>605.29</ele><time>2014-06-23T17:11:22Z</time></trkpt><trkpt lat="46.4770970307" lon="6.8248367496"><ele>607.69</ele><time>2014-06-23T17:11:34Z</time></trkpt><trkpt lat="46.4771650080" lon="6.8246929999"><ele>609.13</ele><time>2014-06-23T17:11:45Z</time></trkpt><trkpt lat="46.4771830291" lon="6.8246745598"><ele>609.13</ele><time>2014-06-23T17:11:47Z</time></trkpt><trkpt lat="46.4771904889" lon="6.8246398587"><ele>609.61</ele><time>2014-06-23T17:11:49Z</time></trkpt><trkpt lat="46.4771828614" lon="6.8245891482"><ele>610.57</ele><time>2014-06-23T17:11:52Z</time></trkpt><trkpt lat="46.4771644212" lon="6.8245216738"><ele>612.50</ele><time>2014-06-23T17:11:57Z</time></trkpt><trkpt lat="46.4771650080" lon="6.8244892359"><ele>613.46</ele><time>2014-06-23T17:11:59Z</time></trkpt><trkpt lat="46.4771993738" lon="6.8243935145"><ele>616.34</ele><time>2014-06-23T17:12:06Z</time></trkpt><trkpt lat="46.4772108570" lon="6.8243369367"><ele>616.82</ele><time>2014-06-23T17:12:10Z</time></trkpt><trkpt lat="46.4772193227" lon="6.8242371082"><ele>619.71</ele><time>2014-06-23T17:12:21Z</time></trkpt><trkpt lat="46.4772382658" lon="6.8241071049"><ele>623.07</ele><time>2014-06-23T17:12:35Z</time></trkpt><trkpt lat="46.4772768226" lon="6.8239669595"><ele>626.44</ele><time>2014-06-23T17:12:46Z</time></trkpt><trkpt lat="46.4772885572" lon="6.8238534685"><ele>627.40</ele><time>2014-06-23T17:13:00Z</time></trkpt><trkpt lat="46.4773085061" lon="6.8238436617"><ele>625.47</ele><time>2014-06-23T17:13:24Z</time></trkpt><trkpt lat="46.4773368370" lon="6.8238272332"><ele>624.03</ele><time>2014-06-23T17:13:58Z</time></trkpt><trkpt lat="46.4772850368" lon="6.8238403928"><ele>625.96</ele><time>2014-06-23T17:14:22Z</time></trkpt><trkpt lat="46.4772869647" lon="6.8238451704"><ele>625.96</ele><time>2014-06-23T17:14:56Z</time></trkpt><trkpt lat="46.4772755653" lon="6.8238398060"><ele>624.99</ele><time>2014-06-23T17:15:23Z</time></trkpt><trkpt lat="46.4773100987" lon="6.8238088768"><ele>625.47</ele><time>2014-06-23T17:15:32Z</time></trkpt><trkpt lat="46.4773038961" lon="6.8237704877"><ele>625.96</ele><time>2014-06-23T17:15:45Z</time></trkpt><trkpt lat="46.4773119427" lon="6.8238227069"><ele>625.47</ele><time>2014-06-23T17:15:51Z</time></trkpt><trkpt lat="46.4773387648" lon="6.8239583261"><ele>625.47</ele><time>2014-06-23T17:15:58Z</time></trkpt><trkpt lat="46.4774687681" lon="6.8241848890"><ele>628.36</ele><time>2014-06-23T17:16:11Z</time></trkpt><trkpt lat="46.4775441214" lon="6.8240955379"><ele>629.32</ele><time>2014-06-23T17:16:19Z</time></trkpt><trkpt lat="46.4776477218" lon="6.8238775246"><ele>632.68</ele><time>2014-06-23T17:16:33Z</time></trkpt><trkpt lat="46.4776732866" lon="6.8238377944"><ele>633.17</ele><time>2014-06-23T17:16:36Z</time></trkpt><trkpt lat="46.4777970035" lon="6.8237640336"><ele>637.01</ele><time>2014-06-23T17:16:48Z</time></trkpt><trkpt lat="46.4778783917" lon="6.8237134069"><ele>638.45</ele><time>2014-06-23T17:16:55Z</time></trkpt><trkpt lat="46.4779344667" lon="6.8237079587"><ele>639.41</ele><time>2014-06-23T17:16:59Z</time></trkpt><trkpt lat="46.4780013543" lon="6.8234855030"><ele>640.86</ele><time>2014-06-23T17:17:12Z</time></trkpt><trkpt lat="46.4779939782" lon="6.8231032882"><ele>642.30</ele><time>2014-06-23T17:17:29Z</time></trkpt><trkpt lat="46.4779946487" lon="6.8227624800"><ele>643.26</ele><time>2014-06-23T17:17:42Z</time></trkpt><trkpt lat="46.4780606143" lon="6.8223232683"><ele>643.26</ele><time>2014-06-23T17:17:59Z</time></trkpt><trkpt lat="46.4781080559" lon="6.8219616730"><ele>646.14</ele><time>2014-06-23T17:18:15Z</time></trkpt><trkpt lat="46.4781262446" lon="6.8216336053"><ele>650.47</ele><time>2014-06-23T17:18:31Z</time></trkpt><trkpt lat="46.4781493787" lon="6.8214840721"><ele>652.87</ele><time>2014-06-23T17:18:39Z</time></trkpt><trkpt lat="46.4781332854" lon="6.8211950641"><ele>657.68</ele><time>2014-06-23T17:18:56Z</time></trkpt><trkpt lat="46.4781469479" lon="6.8211109098"><ele>658.64</ele><time>2014-06-23T17:19:01Z</time></trkpt><trkpt lat="46.4781318605" lon="6.8209848460"><ele>661.52</ele><time>2014-06-23T17:19:09Z</time></trkpt><trkpt lat="46.4781104866" lon="6.8209265918"><ele>662.49</ele><time>2014-06-23T17:19:13Z</time></trkpt><trkpt lat="46.4781163540" lon="6.8208964169"><ele>662.97</ele><time>2014-06-23T17:19:15Z</time></trkpt><trkpt lat="46.4780726843" lon="6.8207790703"><ele>666.33</ele><time>2014-06-23T17:19:26Z</time></trkpt><trkpt lat="46.4780503046" lon="6.8206285313"><ele>669.22</ele><time>2014-06-23T17:19:39Z</time></trkpt><trkpt lat="46.4780825749" lon="6.8204807583"><ele>671.62</ele><time>2014-06-23T17:19:54Z</time></trkpt><trkpt lat="46.4782085549" lon="6.8205017969"><ele>675.46</ele><time>2014-06-23T17:20:12Z</time></trkpt><trkpt lat="46.4783288352" lon="6.8205546029"><ele>679.31</ele><time>2014-06-23T17:20:29Z</time></trkpt><trkpt lat="46.4783185255" lon="6.8205382582"><ele>678.83</ele><time>2014-06-23T17:20:50Z</time></trkpt><trkpt lat="46.4783828147" lon="6.8205634039"><ele>679.31</ele><time>2014-06-23T17:20:55Z</time></trkpt><trkpt lat="46.4784496184" lon="6.8205696903"><ele>680.75</ele><time>2014-06-23T17:21:00Z</time></trkpt><trkpt lat="46.4786450006" lon="6.8206807505"><ele>681.71</ele><time>2014-06-23T17:21:15Z</time></trkpt><trkpt lat="46.4787359443" lon="6.8208173756"><ele>683.15</ele><time>2014-06-23T17:21:25Z</time></trkpt><trkpt lat="46.4788464177" lon="6.8210499734"><ele>689.88</ele><time>2014-06-23T17:21:41Z</time></trkpt><trkpt lat="46.4789003972" lon="6.8212057091"><ele>696.13</ele><time>2014-06-23T17:21:52Z</time></trkpt><trkpt lat="46.4789764211" lon="6.8214392290"><ele>698.53</ele><time>2014-06-23T17:22:06Z</time></trkpt><trkpt lat="46.4790723100" lon="6.8216041010"><ele>699.98</ele><time>2014-06-23T17:22:19Z</time></trkpt><trkpt lat="46.4791220147" lon="6.8217794504"><ele>702.86</ele><time>2014-06-23T17:22:30Z</time></trkpt><trkpt lat="46.4791647624" lon="6.8218262214"><ele>703.34</ele><time>2014-06-23T17:22:34Z</time></trkpt><trkpt lat="46.4791814424" lon="6.8218539655"><ele>703.82</ele><time>2014-06-23T17:22:36Z</time></trkpt><trkpt lat="46.4792135451" lon="6.8219819572"><ele>705.75</ele><time>2014-06-23T17:22:43Z</time></trkpt><trkpt lat="46.4792747330" lon="6.8221283052"><ele>709.11</ele><time>2014-06-23T17:22:53Z</time></trkpt><trkpt lat="46.4793190733" lon="6.8222733960"><ele>711.03</ele><time>2014-06-23T17:23:03Z</time></trkpt><trkpt lat="46.4793282934" lon="6.8223699555"><ele>711.51</ele><time>2014-06-23T17:23:08Z</time></trkpt><trkpt lat="46.4793360885" lon="6.8224073388"><ele>711.51</ele><time>2014-06-23T17:23:10Z</time></trkpt><trkpt lat="46.4793765731" lon="6.8225834426"><ele>713.44</ele><time>2014-06-23T17:23:20Z</time></trkpt><trkpt lat="46.4793714602" lon="6.8226569518"><ele>713.92</ele><time>2014-06-23T17:23:24Z</time></trkpt><trkpt lat="46.4794098493" lon="6.8228794914"><ele>716.80</ele><time>2014-06-23T17:23:37Z</time></trkpt><trkpt lat="46.4794225059" lon="6.8229451217"><ele>718.24</ele><time>2014-06-23T17:23:41Z</time></trkpt><trkpt lat="46.4794254396" lon="6.8229856901"><ele>718.24</ele><time>2014-06-23T17:23:43Z</time></trkpt><trkpt lat="46.4794795867" lon="6.8231525738"><ele>718.72</ele><time>2014-06-23T17:23:53Z</time></trkpt><trkpt lat="46.4795034751" lon="6.8231747858"><ele>718.72</ele><time>2014-06-23T17:23:55Z</time></trkpt><trkpt lat="46.4795409422" lon="6.8233631272"><ele>721.61</ele><time>2014-06-23T17:24:06Z</time></trkpt><trkpt lat="46.4795608912" lon="6.8234033603"><ele>721.61</ele><time>2014-06-23T17:24:08Z</time></trkpt><trkpt lat="46.4796007890" lon="6.8237239681"><ele>725.45</ele><time>2014-06-23T17:24:25Z</time></trkpt><trkpt lat="46.4796481468" lon="6.8238888402"><ele>726.41</ele><time>2014-06-23T17:24:33Z</time></trkpt><trkpt lat="46.4796593785" lon="6.8242380302"><ele>726.41</ele><time>2014-06-23T17:24:50Z</time></trkpt><trkpt lat="46.4796823449" lon="6.8245636672"><ele>728.34</ele><time>2014-06-23T17:25:06Z</time></trkpt><trkpt lat="46.4797146153" lon="6.8246875517"><ele>729.30</ele><time>2014-06-23T17:25:13Z</time></trkpt><trkpt lat="46.4797545969" lon="6.8248271104"><ele>729.30</ele><time>2014-06-23T17:25:21Z</time></trkpt><trkpt lat="46.4798070677" lon="6.8250219896"><ele>731.70</ele><time>2014-06-23T17:25:32Z</time></trkpt><trkpt lat="46.4798747096" lon="6.8251659907"><ele>734.58</ele><time>2014-06-23T17:25:41Z</time></trkpt><trkpt lat="46.4799531642" lon="6.8255197071"><ele>738.91</ele><time>2014-06-23T17:25:59Z</time></trkpt><trkpt lat="46.4799823333" lon="6.8256493751"><ele>739.39</ele><time>2014-06-23T17:26:06Z</time></trkpt><trkpt lat="46.4800711814" lon="6.8258859124"><ele>743.72</ele><time>2014-06-23T17:26:21Z</time></trkpt><trkpt lat="46.4801188745" lon="6.8257927056"><ele>744.68</ele><time>2014-06-23T17:26:27Z</time></trkpt><trkpt lat="46.4801135100" lon="6.8253857642"><ele>745.64</ele><time>2014-06-23T17:26:46Z</time></trkpt><trkpt lat="46.4801261667" lon="6.8249737099"><ele>745.64</ele><time>2014-06-23T17:27:01Z</time></trkpt><trkpt lat="46.4802352991" lon="6.8246148806"><ele>747.56</ele><time>2014-06-23T17:27:17Z</time></trkpt><trkpt lat="46.4802990016" lon="6.8245443050"><ele>749.49</ele><time>2014-06-23T17:27:23Z</time></trkpt><trkpt lat="46.4803286735" lon="6.8245475739"><ele>749.97</ele><time>2014-06-23T17:27:36Z</time></trkpt><trkpt lat="46.4803340379" lon="6.8245212547"><ele>750.45</ele><time>2014-06-23T17:27:43Z</time></trkpt><trkpt lat="46.4803383127" lon="6.8245995417"><ele>751.41</ele><time>2014-06-23T17:27:50Z</time></trkpt><trkpt lat="46.4803733490" lon="6.8246756494"><ele>751.41</ele><time>2014-06-23T17:27:54Z</time></trkpt><trkpt lat="46.4803945553" lon="6.8247598875"><ele>752.37</ele><time>2014-06-23T17:27:58Z</time></trkpt><trkpt lat="46.4804839902" lon="6.8250861112"><ele>757.18</ele><time>2014-06-23T17:28:13Z</time></trkpt><trkpt lat="46.4805536438" lon="6.8254133407"><ele>759.58</ele><time>2014-06-23T17:28:29Z</time></trkpt><trkpt lat="46.4806087967" lon="6.8257430010"><ele>761.98</ele><time>2014-06-23T17:28:46Z</time></trkpt><trkpt lat="46.4806355350" lon="6.8260730803"><ele>763.42</ele><time>2014-06-23T17:29:01Z</time></trkpt><trkpt lat="46.4807027578" lon="6.8265123758"><ele>763.90</ele><time>2014-06-23T17:29:15Z</time></trkpt><trkpt lat="46.4809165802" lon="6.8272782303"><ele>765.35</ele><time>2014-06-23T17:29:34Z</time></trkpt><trkpt lat="46.4810594916" lon="6.8278874271"><ele>767.27</ele><time>2014-06-23T17:29:49Z</time></trkpt><trkpt lat="46.4811509382" lon="6.8285128009"><ele>767.75</ele><time>2014-06-23T17:30:05Z</time></trkpt><trkpt lat="46.4812171552" lon="6.8288668524"><ele>768.71</ele><time>2014-06-23T17:30:20Z</time></trkpt><trkpt lat="46.4812350087" lon="6.8292650767"><ele>772.56</ele><time>2014-06-23T17:30:38Z</time></trkpt><trkpt lat="46.4812360983" lon="6.8293479737"><ele>773.04</ele><time>2014-06-23T17:30:42Z</time></trkpt><trkpt lat="46.4812430553" lon="6.8297040369"><ele>775.44</ele><time>2014-06-23T17:30:59Z</time></trkpt><trkpt lat="46.4812962804" lon="6.8300071266"><ele>780.25</ele><time>2014-06-23T17:31:15Z</time></trkpt><trkpt lat="46.4813451469" lon="6.8301866669"><ele>782.17</ele><time>2014-06-23T17:31:25Z</time></trkpt><trkpt lat="46.4813641738" lon="6.8302491959"><ele>782.65</ele><time>2014-06-23T17:31:28Z</time></trkpt><trkpt lat="46.4813859668" lon="6.8303652853"><ele>784.09</ele><time>2014-06-23T17:31:34Z</time></trkpt><trkpt lat="46.4814255293" lon="6.8306391221"><ele>787.94</ele><time>2014-06-23T17:31:50Z</time></trkpt><trkpt lat="46.4814337436" lon="6.8306854740"><ele>788.90</ele><time>2014-06-23T17:31:53Z</time></trkpt><trkpt lat="46.4814787544" lon="6.8309675250"><ele>792.74</ele><time>2014-06-23T17:32:09Z</time></trkpt><trkpt lat="46.4814821072" lon="6.8309853785"><ele>793.22</ele><time>2014-06-23T17:32:10Z</time></trkpt><trkpt lat="46.4814925008" lon="6.8311335705"><ele>794.67</ele><time>2014-06-23T17:32:18Z</time></trkpt><trkpt lat="46.4815551136" lon="6.8314566929"><ele>797.07</ele><time>2014-06-23T17:32:35Z</time></trkpt><trkpt lat="46.4815919101" lon="6.8316830043"><ele>798.51</ele><time>2014-06-23T17:32:47Z</time></trkpt><trkpt lat="46.4816243481" lon="6.8318069726"><ele>799.47</ele><time>2014-06-23T17:32:54Z</time></trkpt><trkpt lat="46.4816913195" lon="6.8321099784"><ele>801.40</ele><time>2014-06-23T17:33:10Z</time></trkpt><trkpt lat="46.4816952590" lon="6.8322244752"><ele>806.68</ele><time>2014-06-23T17:33:19Z</time></trkpt><trkpt lat="46.4818038885" lon="6.8324346934"><ele>811.01</ele><time>2014-06-23T17:33:32Z</time></trkpt><trkpt lat="46.4818023797" lon="6.8325472623"><ele>813.41</ele><time>2014-06-23T17:33:39Z</time></trkpt><trkpt lat="46.4818686806" lon="6.8327283952"><ele>815.82</ele><time>2014-06-23T17:33:50Z</time></trkpt><trkpt lat="46.4819704369" lon="6.8328687083"><ele>817.74</ele><time>2014-06-23T17:34:04Z</time></trkpt><trkpt lat="46.4819885418" lon="6.8328907527"><ele>816.78</ele><time>2014-06-23T17:34:24Z</time></trkpt><trkpt lat="46.4820238296" lon="6.8328806944"><ele>816.78</ele><time>2014-06-23T17:34:44Z</time></trkpt><trkpt lat="46.4820278529" lon="6.8328835443"><ele>814.85</ele><time>2014-06-23T17:35:09Z</time></trkpt><trkpt lat="46.4820439462" lon="6.8328890763"><ele>815.82</ele><time>2014-06-23T17:35:30Z</time></trkpt><trkpt lat="46.4819960017" lon="6.8329275493"><ele>817.26</ele><time>2014-06-23T17:36:11Z</time></trkpt><trkpt lat="46.4820052218" lon="6.8329179101"><ele>817.26</ele><time>2014-06-23T17:36:35Z</time></trkpt><trkpt lat="46.4820020366" lon="6.8329371884"><ele>818.70</ele><time>2014-06-23T17:37:05Z</time></trkpt><trkpt lat="46.4819830935" lon="6.8329487555"><ele>817.74</ele><time>2014-06-23T17:37:42Z</time></trkpt><trkpt lat="46.4820205607" lon="6.8329662737"><ele>820.14</ele><time>2014-06-23T17:38:21Z</time></trkpt><trkpt lat="46.4820524119" lon="6.8329209276"><ele>820.62</ele><time>2014-06-23T17:38:53Z</time></trkpt><trkpt lat="46.4819882065" lon="6.8329651840"><ele>825.43</ele><time>2014-06-23T17:39:21Z</time></trkpt><trkpt lat="46.4819760527" lon="6.8329154793"><ele>828.79</ele><time>2014-06-23T17:39:46Z</time></trkpt><trkpt lat="46.4820020366" lon="6.8328792695"><ele>824.47</ele><time>2014-06-23T17:40:01Z</time></trkpt><trkpt lat="46.4820358157" lon="6.8328210991"><ele>822.06</ele><time>2014-06-23T17:40:05Z</time></trkpt><trkpt lat="46.4820034616" lon="6.8323672190"><ele>819.66</ele><time>2014-06-23T17:40:18Z</time></trkpt><trkpt lat="46.4819879550" lon="6.8321217131"><ele>819.18</ele><time>2014-06-23T17:40:25Z</time></trkpt><trkpt lat="46.4820959978" lon="6.8316527456"><ele>817.74</ele><time>2014-06-23T17:40:37Z</time></trkpt><trkpt lat="46.4821954072" lon="6.8311106041"><ele>817.26</ele><time>2014-06-23T17:40:50Z</time></trkpt><trkpt lat="46.4822247438" lon="6.8305207696"><ele>819.66</ele><time>2014-06-23T17:41:05Z</time></trkpt><trkpt lat="46.4822137635" lon="6.8300149217"><ele>821.10</ele><time>2014-06-23T17:41:20Z</time></trkpt><trkpt lat="46.4821967483" lon="6.8295540009"><ele>823.99</ele><time>2014-06-23T17:41:36Z</time></trkpt><trkpt lat="46.4822005201" lon="6.8291085865"><ele>826.39</ele><time>2014-06-23T17:41:51Z</time></trkpt><trkpt lat="46.4821904618" lon="6.8286769185"><ele>832.16</ele><time>2014-06-23T17:42:06Z</time></trkpt><trkpt lat="46.4821876958" lon="6.8285138067"><ele>833.60</ele><time>2014-06-23T17:42:12Z</time></trkpt><trkpt lat="46.4822037891" lon="6.8284123857"><ele>834.56</ele><time>2014-06-23T17:42:16Z</time></trkpt><trkpt lat="46.4822379872" lon="6.8279841542"><ele>836.00</ele><time>2014-06-23T17:42:30Z</time></trkpt><trkpt lat="46.4822497219" lon="6.8274553400"><ele>836.96</ele><time>2014-06-23T17:42:48Z</time></trkpt><trkpt lat="46.4823216386" lon="6.8270372506"><ele>836.48</ele><time>2014-06-23T17:43:02Z</time></trkpt><trkpt lat="46.4824535698" lon="6.8264547922"><ele>836.96</ele><time>2014-06-23T17:43:19Z</time></trkpt><trkpt lat="46.4825553261" lon="6.8260544725"><ele>836.96</ele><time>2014-06-23T17:43:31Z</time></trkpt><trkpt lat="46.4826093055" lon="6.8259125669"><ele>837.45</ele><time>2014-06-23T17:43:36Z</time></trkpt><trkpt lat="46.4827728365" lon="6.8254091498"><ele>838.89</ele><time>2014-06-23T17:43:52Z</time></trkpt><trkpt lat="46.4829161670" lon="6.8248550221"><ele>840.81</ele><time>2014-06-23T17:44:10Z</time></trkpt><trkpt lat="46.4830040932" lon="6.8245008867"><ele>844.18</ele><time>2014-06-23T17:44:22Z</time></trkpt><trkpt lat="46.4830923546" lon="6.8242150638"><ele>844.66</ele><time>2014-06-23T17:44:31Z</time></trkpt><trkpt lat="46.4831335098" lon="6.8241024949"><ele>844.18</ele><time>2014-06-23T17:44:35Z</time></trkpt><trkpt lat="46.4832712244" lon="6.8236397300"><ele>846.58</ele><time>2014-06-23T17:44:50Z</time></trkpt><trkpt lat="46.4834013116" lon="6.8232458644"><ele>848.50</ele><time>2014-06-23T17:45:03Z</time></trkpt><trkpt lat="46.4835410379" lon="6.8227789085"><ele>850.42</ele><time>2014-06-23T17:45:18Z</time></trkpt><trkpt lat="46.4836311433" lon="6.8222428858"><ele>852.35</ele><time>2014-06-23T17:45:35Z</time></trkpt><trkpt lat="46.4837336540" lon="6.8218061049"><ele>853.31</ele><time>2014-06-23T17:45:49Z</time></trkpt><trkpt lat="46.4838513359" lon="6.8212818168"><ele>853.79</ele><time>2014-06-23T17:46:06Z</time></trkpt><trkpt lat="46.4840171300" lon="6.8206979334"><ele>854.75</ele><time>2014-06-23T17:46:25Z</time></trkpt><trkpt lat="46.4841595385" lon="6.8203229271"><ele>853.79</ele><time>2014-06-23T17:46:39Z</time></trkpt><trkpt lat="46.4842352271" lon="6.8203695305"><ele>853.79</ele><time>2014-06-23T17:46:44Z</time></trkpt><trkpt lat="46.4845001791" lon="6.8206261005"><ele>856.67</ele><time>2014-06-23T17:46:59Z</time></trkpt><trkpt lat="46.4845844172" lon="6.8208783958"><ele>860.04</ele><time>2014-06-23T17:47:12Z</time></trkpt><trkpt lat="46.4846004266" lon="6.8210208882"><ele>862.44</ele><time>2014-06-23T17:47:19Z</time></trkpt><trkpt lat="46.4845794719" lon="6.8213979900"><ele>865.32</ele><time>2014-06-23T17:47:37Z</time></trkpt><trkpt lat="46.4845610317" lon="6.8216928653"><ele>867.73</ele><time>2014-06-23T17:47:51Z</time></trkpt><trkpt lat="46.4845284261" lon="6.8220552988"><ele>871.09</ele><time>2014-06-23T17:48:08Z</time></trkpt><trkpt lat="46.4845226426" lon="6.8222053349"><ele>871.57</ele><time>2014-06-23T17:48:15Z</time></trkpt><trkpt lat="46.4845231455" lon="6.8223731406"><ele>873.01</ele><time>2014-06-23T17:48:23Z</time></trkpt><trkpt lat="46.4846192859" lon="6.8227223307"><ele>875.42</ele><time>2014-06-23T17:48:40Z</time></trkpt><trkpt lat="46.4847044460" lon="6.8230220675"><ele>877.34</ele><time>2014-06-23T17:48:55Z</time></trkpt><trkpt lat="46.4847849123" lon="6.8233303539"><ele>880.22</ele><time>2014-06-23T17:49:10Z</time></trkpt><trkpt lat="46.4848511294" lon="6.8236704078"><ele>883.11</ele><time>2014-06-23T17:49:27Z</time></trkpt><trkpt lat="46.4849072043" lon="6.8240325898"><ele>885.99</ele><time>2014-06-23T17:49:45Z</time></trkpt><trkpt lat="46.4849486947" lon="6.8243458215"><ele>888.40</ele><time>2014-06-23T17:50:01Z</time></trkpt><trkpt lat="46.4849680569" lon="6.8246281240"><ele>890.80</ele><time>2014-06-23T17:50:16Z</time></trkpt><trkpt lat="46.4849819709" lon="6.8247813452"><ele>892.24</ele><time>2014-06-23T17:50:24Z</time></trkpt><trkpt lat="46.4849652909" lon="6.8249638192"><ele>893.20</ele><time>2014-06-23T17:50:40Z</time></trkpt><trkpt lat="46.4849620219" lon="6.8249594606"><ele>894.64</ele><time>2014-06-23T17:50:50Z</time></trkpt><trkpt lat="46.4849184360" lon="6.8249431998"><ele>894.16</ele><time>2014-06-23T17:50:54Z</time></trkpt><trkpt lat="46.4846980758" lon="6.8250249233"><ele>894.16</ele><time>2014-06-23T17:51:08Z</time></trkpt><trkpt lat="46.4845982473" lon="6.8250484765"><ele>893.20</ele><time>2014-06-23T17:51:14Z</time></trkpt><trkpt lat="46.4845564216" lon="6.8250780646"><ele>889.36</ele><time>2014-06-23T17:51:22Z</time></trkpt><trkpt lat="46.4845825732" lon="6.8250877038"><ele>883.59</ele><time>2014-06-23T17:51:45Z</time></trkpt><trkpt lat="46.4845504705" lon="6.8250729516"><ele>885.03</ele><time>2014-06-23T17:51:57Z</time></trkpt><trkpt lat="46.4844572637" lon="6.8250796571"><ele>882.15</ele><time>2014-06-23T17:52:03Z</time></trkpt><trkpt lat="46.4843671583" lon="6.8251105864"><ele>878.30</ele><time>2014-06-23T17:52:12Z</time></trkpt><trkpt lat="46.4843519870" lon="6.8251245841"><ele>879.74</ele><time>2014-06-23T17:52:18Z</time></trkpt><trkpt lat="46.4843076468" lon="6.8251393363"><ele>880.22</ele><time>2014-06-23T17:52:22Z</time></trkpt><trkpt lat="46.4842690062" lon="6.8250972591"><ele>881.67</ele><time>2014-06-23T17:52:31Z</time></trkpt><trkpt lat="46.4842338022" lon="6.8250053935"><ele>879.74</ele><time>2014-06-23T17:52:44Z</time></trkpt><trkpt lat="46.4842332993" lon="6.8250197265"><ele>880.22</ele><time>2014-06-23T17:52:52Z</time></trkpt><trkpt lat="46.4841495641" lon="6.8253743649"><ele>876.38</ele><time>2014-06-23T17:53:03Z</time></trkpt><trkpt lat="46.4840256795" lon="6.8256281689"><ele>872.05</ele><time>2014-06-23T17:53:10Z</time></trkpt><trkpt lat="46.4838182274" lon="6.8259339407"><ele>867.25</ele><time>2014-06-23T17:53:19Z</time></trkpt><trkpt lat="46.4836926665" lon="6.8262588233"><ele>861.48</ele><time>2014-06-23T17:53:26Z</time></trkpt><trkpt lat="46.4835625794" lon="6.8266056664"><ele>859.56</ele><time>2014-06-23T17:53:34Z</time></trkpt><trkpt lat="46.4832583163" lon="6.8275666516"><ele>855.23</ele><time>2014-06-23T17:53:47Z</time></trkpt><trkpt lat="46.4832121320" lon="6.8277365528"><ele>854.27</ele><time>2014-06-23T17:53:49Z</time></trkpt><trkpt lat="46.4830995630" lon="6.8278627004"><ele>853.31</ele><time>2014-06-23T17:53:53Z</time></trkpt><trkpt lat="46.4827877562" lon="6.8280149158"><ele>850.90</ele><time>2014-06-23T17:54:01Z</time></trkpt><trkpt lat="46.4827277418" lon="6.8277453538"><ele>847.54</ele><time>2014-06-23T17:54:07Z</time></trkpt><trkpt lat="46.4827429969" lon="6.8276783824"><ele>847.06</ele><time>2014-06-23T17:54:08Z</time></trkpt><trkpt lat="46.4827950485" lon="6.8274614587"><ele>845.14</ele><time>2014-06-23T17:54:11Z</time></trkpt><trkpt lat="46.4828053582" lon="6.8271594588"><ele>844.18</ele><time>2014-06-23T17:54:15Z</time></trkpt><trkpt lat="46.4827946294" lon="6.8265763298"><ele>840.81</ele><time>2014-06-23T17:54:22Z</time></trkpt><trkpt lat="46.4828134887" lon="6.8262219429"><ele>837.93</ele><time>2014-06-23T17:54:26Z</time></trkpt><trkpt lat="46.4826417435" lon="6.8259341922"><ele>834.56</ele><time>2014-06-23T17:54:34Z</time></trkpt><trkpt lat="46.4825212117" lon="6.8261643592"><ele>834.08</ele><time>2014-06-23T17:54:42Z</time></trkpt><trkpt lat="46.4823016897" lon="6.8271240033"><ele>832.64</ele><time>2014-06-23T17:55:00Z</time></trkpt><trkpt lat="46.4822638035" lon="6.8273693416"><ele>832.16</ele><time>2014-06-23T17:55:04Z</time></trkpt><trkpt lat="46.4822078962" lon="6.8281628564"><ele>827.35</ele><time>2014-06-23T17:55:15Z</time></trkpt><trkpt lat="46.4821776375" lon="6.8284205999"><ele>824.47</ele><time>2014-06-23T17:55:23Z</time></trkpt><trkpt lat="46.4822086506" lon="6.8284483440"><ele>827.35</ele><time>2014-06-23T17:55:48Z</time></trkpt><trkpt lat="46.4821926411" lon="6.8284475058"><ele>828.79</ele><time>2014-06-23T17:56:15Z</time></trkpt><trkpt lat="46.4821918029" lon="6.8284712266"><ele>828.79</ele><time>2014-06-23T17:56:28Z</time></trkpt><trkpt lat="46.4821999334" lon="6.8284941092"><ele>827.83</ele><time>2014-06-23T17:56:42Z</time></trkpt><trkpt lat="46.4822103269" lon="6.8287143856"><ele>828.31</ele><time>2014-06-23T17:56:57Z</time></trkpt><trkpt lat="46.4822192956" lon="6.8288982846"><ele>827.35</ele><time>2014-06-23T17:57:00Z</time></trkpt><trkpt lat="46.4822203014" lon="6.8300748523"><ele>821.10</ele><time>2014-06-23T17:57:13Z</time></trkpt><trkpt lat="46.4821548387" lon="6.8314112630"><ele>814.85</ele><time>2014-06-23T17:57:24Z</time></trkpt><trkpt lat="46.4820277691" lon="6.8317658175"><ele>813.89</ele><time>2014-06-23T17:57:28Z</time></trkpt><trkpt lat="46.4819735382" lon="6.8321984075"><ele>813.41</ele><time>2014-06-23T17:57:33Z</time></trkpt><trkpt lat="46.4820142742" lon="6.8334874604"><ele>810.53</ele><time>2014-06-23T17:57:47Z</time></trkpt><trkpt lat="46.4820839278" lon="6.8350419682"><ele>803.32</ele><time>2014-06-23T17:58:01Z</time></trkpt><trkpt lat="46.4824265800" lon="6.8365255650"><ele>795.15</ele><time>2014-06-23T17:58:13Z</time></trkpt><trkpt lat="46.4829589147" lon="6.8375012185"><ele>790.82</ele><time>2014-06-23T17:58:24Z</time></trkpt><trkpt lat="46.4830900915" lon="6.8377053179"><ele>790.34</ele><time>2014-06-23T17:58:27Z</time></trkpt><trkpt lat="46.4837668464" lon="6.8380367383"><ele>786.98</ele><time>2014-06-23T17:58:36Z</time></trkpt><trkpt lat="46.4848429989" lon="6.8386243097"><ele>781.21</ele><time>2014-06-23T17:58:48Z</time></trkpt><trkpt lat="46.4849300869" lon="6.8386452645"><ele>780.73</ele><time>2014-06-23T17:58:49Z</time></trkpt><trkpt lat="46.4851708151" lon="6.8389775231"><ele>778.81</ele><time>2014-06-23T17:58:53Z</time></trkpt><trkpt lat="46.4857438859" lon="6.8395841215"><ele>774.48</ele><time>2014-06-23T17:59:01Z</time></trkpt><trkpt lat="46.4869755227" lon="6.8401074037"><ele>773.04</ele><time>2014-06-23T17:59:14Z</time></trkpt><trkpt lat="46.4874229487" lon="6.8400059827"><ele>772.56</ele><time>2014-06-23T17:59:19Z</time></trkpt><trkpt lat="46.4877439756" lon="6.8401623890"><ele>771.60</ele><time>2014-06-23T17:59:23Z</time></trkpt><trkpt lat="46.4884204790" lon="6.8410262279"><ele>770.15</ele><time>2014-06-23T17:59:35Z</time></trkpt><trkpt lat="46.4884761348" lon="6.8410833925"><ele>770.15</ele><time>2014-06-23T17:59:36Z</time></trkpt><trkpt lat="46.4884923957" lon="6.8416183256"><ele>769.19</ele><time>2014-06-23T17:59:42Z</time></trkpt><trkpt lat="46.4875218552" lon="6.8432348594"><ele>761.98</ele><time>2014-06-23T18:00:00Z</time></trkpt><trkpt lat="46.4866626263" lon="6.8447778840"><ele>757.66</ele><time>2014-06-23T18:00:18Z</time></trkpt><trkpt lat="46.4863588661" lon="6.8452621065"><ele>756.21</ele><time>2014-06-23T18:00:25Z</time></trkpt><trkpt lat="46.4862291981" lon="6.8456264678"><ele>755.25</ele><time>2014-06-23T18:00:30Z</time></trkpt><trkpt lat="46.4862364065" lon="6.8460384384"><ele>755.25</ele><time>2014-06-23T18:00:35Z</time></trkpt><trkpt lat="46.4863328822" lon="6.8463638239"><ele>755.25</ele><time>2014-06-23T18:00:40Z</time></trkpt><trkpt lat="46.4865920506" lon="6.8467131816"><ele>756.21</ele><time>2014-06-23T18:00:47Z</time></trkpt><trkpt lat="46.4866772946" lon="6.8471927941"><ele>757.66</ele><time>2014-06-23T18:00:54Z</time></trkpt><trkpt lat="46.4866867661" lon="6.8474382162"><ele>757.18</ele><time>2014-06-23T18:00:57Z</time></trkpt><trkpt lat="46.4870220423" lon="6.8485962600"><ele>758.14</ele><time>2014-06-23T18:01:12Z</time></trkpt><trkpt lat="46.4870426618" lon="6.8486598786"><ele>758.14</ele><time>2014-06-23T18:01:13Z</time></trkpt><trkpt lat="46.4869530592" lon="6.8487791531"><ele>758.14</ele><time>2014-06-23T18:01:20Z</time></trkpt><trkpt lat="46.4869268239" lon="6.8487690110"><ele>758.14</ele><time>2014-06-23T18:01:21Z</time></trkpt><trkpt lat="46.4867639635" lon="6.8487515766"><ele>758.62</ele><time>2014-06-23T18:01:26Z</time></trkpt><trkpt lat="46.4865901228" lon="6.8488644809"><ele>758.14</ele><time>2014-06-23T18:01:31Z</time></trkpt><trkpt lat="46.4864996821" lon="6.8489462882"><ele>755.73</ele><time>2014-06-23T18:01:36Z</time></trkpt><trkpt lat="46.4862794895" lon="6.8489296082"><ele>752.85</ele><time>2014-06-23T18:01:41Z</time></trkpt><trkpt lat="46.4861922339" lon="6.8488765508"><ele>751.89</ele><time>2014-06-23T18:01:43Z</time></trkpt><trkpt lat="46.4857903216" lon="6.8486120179"><ele>742.28</ele><time>2014-06-23T18:01:51Z</time></trkpt><trkpt lat="46.4856422972" lon="6.8485298753"><ele>738.91</ele><time>2014-06-23T18:01:54Z</time></trkpt><trkpt lat="46.4853444882" lon="6.8481168151"><ele>730.26</ele><time>2014-06-23T18:01:59Z</time></trkpt><trkpt lat="46.4846728463" lon="6.8469729368"><ele>715.84</ele><time>2014-06-23T18:02:09Z</time></trkpt><trkpt lat="46.4841555152" lon="6.8464820087"><ele>705.75</ele><time>2014-06-23T18:02:16Z</time></trkpt><trkpt lat="46.4839723706" lon="6.8462681863"><ele>702.86</ele><time>2014-06-23T18:02:19Z</time></trkpt><trkpt lat="46.4837831911" lon="6.8459937628"><ele>699.50</ele><time>2014-06-23T18:02:22Z</time></trkpt><trkpt lat="46.4836465660" lon="6.8456630129"><ele>697.09</ele><time>2014-06-23T18:02:25Z</time></trkpt><trkpt lat="46.4836111944" lon="6.8450027704"><ele>691.33</ele><time>2014-06-23T18:02:30Z</time></trkpt><trkpt lat="46.4836375136" lon="6.8438944314"><ele>678.83</ele><time>2014-06-23T18:02:40Z</time></trkpt><trkpt lat="46.4835684467" lon="6.8438648432"><ele>675.46</ele><time>2014-06-23T18:02:45Z</time></trkpt><trkpt lat="46.4834460709" lon="6.8439382687"><ele>672.58</ele><time>2014-06-23T18:02:50Z</time></trkpt><trkpt lat="46.4828218706" lon="6.8443619739"><ele>660.56</ele><time>2014-06-23T18:03:00Z</time></trkpt><trkpt lat="46.4822014421" lon="6.8448166084"><ele>652.39</ele><time>2014-06-23T18:03:08Z</time></trkpt><trkpt lat="46.4819669165" lon="6.8448763713"><ele>648.55</ele><time>2014-06-23T18:03:13Z</time></trkpt><trkpt lat="46.4818975981" lon="6.8447777163"><ele>646.14</ele><time>2014-06-23T18:03:24Z</time></trkpt><trkpt lat="46.4818893839" lon="6.8447662331"><ele>647.10</ele><time>2014-06-23T18:03:49Z</time></trkpt><trkpt lat="46.4819537569" lon="6.8446075637"><ele>647.59</ele><time>2014-06-23T18:03:54Z</time></trkpt><trkpt lat="46.4823441021" lon="6.8437939323"><ele>644.70</ele><time>2014-06-23T18:04:06Z</time></trkpt><trkpt lat="46.4821715187" lon="6.8433261383"><ele>643.26</ele><time>2014-06-23T18:04:12Z</time></trkpt><trkpt lat="46.4820164535" lon="6.8433610909"><ele>642.78</ele><time>2014-06-23T18:04:14Z</time></trkpt><trkpt lat="46.4818654116" lon="6.8434475083"><ele>641.82</ele><time>2014-06-23T18:04:16Z</time></trkpt><trkpt lat="46.4813505113" lon="6.8435220234"><ele>640.86</ele><time>2014-06-23T18:04:22Z</time></trkpt><trkpt lat="46.4801846724" lon="6.8429221306"><ele>636.53</ele><time>2014-06-23T18:04:35Z</time></trkpt><trkpt lat="46.4799291082" lon="6.8427679036"><ele>635.09</ele><time>2014-06-23T18:04:38Z</time></trkpt><trkpt lat="46.4796668384" lon="6.8424259219"><ele>633.17</ele><time>2014-06-23T18:04:42Z</time></trkpt><trkpt lat="46.4788948651" lon="6.8407953065"><ele>624.51</ele><time>2014-06-23T18:04:56Z</time></trkpt><trkpt lat="46.4777795691" lon="6.8389196042"><ele>613.46</ele><time>2014-06-23T18:05:12Z</time></trkpt><trkpt lat="46.4772344101" lon="6.8374411203"><ele>606.73</ele><time>2014-06-23T18:05:23Z</time></trkpt><trkpt lat="46.4770989586" lon="6.8357977644"><ele>598.56</ele><time>2014-06-23T18:05:34Z</time></trkpt><trkpt lat="46.4771477412" lon="6.8347231206"><ele>594.23</ele><time>2014-06-23T18:05:42Z</time></trkpt><trkpt lat="46.4769552089" lon="6.8342095613"><ele>591.35</ele><time>2014-06-23T18:05:48Z</time></trkpt><trkpt lat="46.4768524468" lon="6.8342709169"><ele>590.87</ele><time>2014-06-23T18:05:50Z</time></trkpt><trkpt lat="46.4766137302" lon="6.8347920198"><ele>587.98</ele><time>2014-06-23T18:05:57Z</time></trkpt><trkpt lat="46.4766264707" lon="6.8349014036"><ele>587.50</ele><time>2014-06-23T18:05:58Z</time></trkpt><trkpt lat="46.4765099622" lon="6.8362457771"><ele>581.25</ele><time>2014-06-23T18:06:09Z</time></trkpt><trkpt lat="46.4763146639" lon="6.8372589815"><ele>577.41</ele><time>2014-06-23T18:06:18Z</time></trkpt><trkpt lat="46.4761775360" lon="6.8375609815"><ele>574.53</ele><time>2014-06-23T18:06:25Z</time></trkpt><trkpt lat="46.4761521388" lon="6.8374233507"><ele>574.04</ele><time>2014-06-23T18:06:28Z</time></trkpt><trkpt lat="46.4761763625" lon="6.8367107213"><ele>569.24</ele><time>2014-06-23T18:06:40Z</time></trkpt><trkpt lat="46.4761387277" lon="6.8351070955"><ele>563.47</ele><time>2014-06-23T18:06:53Z</time></trkpt><trkpt lat="46.4760876819" lon="6.8344227131"><ele>566.35</ele><time>2014-06-23T18:07:02Z</time></trkpt><trkpt lat="46.4760577586" lon="6.8339874409"><ele>566.35</ele><time>2014-06-23T18:07:14Z</time></trkpt><trkpt lat="46.4760401566" lon="6.8335220776"><ele>562.03</ele><time>2014-06-23T18:07:26Z</time></trkpt><trkpt lat="46.4759622049" lon="6.8327324186"><ele>555.30</ele><time>2014-06-23T18:07:35Z</time></trkpt><trkpt lat="46.4759484585" lon="6.8325769342"><ele>553.86</ele><time>2014-06-23T18:07:37Z</time></trkpt><trkpt lat="46.4758418407" lon="6.8325709831"><ele>550.49</ele><time>2014-06-23T18:07:42Z</time></trkpt><trkpt lat="46.4756378252" lon="6.8328371085"><ele>543.76</ele><time>2014-06-23T18:07:48Z</time></trkpt><trkpt lat="46.4756126795" lon="6.8328825384"><ele>539.92</ele><time>2014-06-23T18:07:56Z</time></trkpt><trkpt lat="46.4755743742" lon="6.8330458179"><ele>541.36</ele><time>2014-06-23T18:08:18Z</time></trkpt><trkpt lat="46.4754049759" lon="6.8336136080"><ele>538.48</ele><time>2014-06-23T18:08:26Z</time></trkpt><trkpt lat="46.4753416926" lon="6.8337467127"><ele>537.99</ele><time>2014-06-23T18:08:29Z</time></trkpt><trkpt lat="46.4752803370" lon="6.8340675719"><ele>534.63</ele><time>2014-06-23T18:08:38Z</time></trkpt><trkpt lat="46.4752136171" lon="6.8341535702"><ele>533.67</ele><time>2014-06-23T18:08:42Z</time></trkpt><trkpt lat="46.4747082721" lon="6.8345483579"><ele>522.13</ele><time>2014-06-23T18:08:57Z</time></trkpt><trkpt lat="46.4744275622" lon="6.8347670417"><ele>515.40</ele><time>2014-06-23T18:09:08Z</time></trkpt><trkpt lat="46.4741424937" lon="6.8349392898"><ele>507.23</ele><time>2014-06-23T18:09:21Z</time></trkpt><trkpt lat="46.4737450238" lon="6.8350935169"><ele>501.46</ele><time>2014-06-23T18:09:37Z</time></trkpt><trkpt lat="46.4736329578" lon="6.8351624999"><ele>498.10</ele><time>2014-06-23T18:09:41Z</time></trkpt><trkpt lat="46.4732508268" lon="6.8352506775"><ele>489.93</ele><time>2014-06-23T18:09:52Z</time></trkpt><trkpt lat="46.4729959331" lon="6.8349478394"><ele>487.05</ele><time>2014-06-23T18:10:02Z</time></trkpt><trkpt lat="46.4729233459" lon="6.8347069435"><ele>484.16</ele><time>2014-06-23T18:10:07Z</time></trkpt><trkpt lat="46.4728951827" lon="6.8341476191"><ele>478.87</ele><time>2014-06-23T18:10:16Z</time></trkpt><trkpt lat="46.4727639221" lon="6.8337052222"><ele>473.11</ele><time>2014-06-23T18:10:23Z</time></trkpt><trkpt lat="46.4727536123" lon="6.8334350735"><ele>469.26</ele><time>2014-06-23T18:10:27Z</time></trkpt><trkpt lat="46.4726531133" lon="6.8330935948"><ele>463.97</ele><time>2014-06-23T18:10:33Z</time></trkpt><trkpt lat="46.4723670390" lon="6.8329529464"><ele>459.65</ele><time>2014-06-23T18:10:39Z</time></trkpt><trkpt lat="46.4722863212" lon="6.8329576403"><ele>458.69</ele><time>2014-06-23T18:10:41Z</time></trkpt><trkpt lat="46.4722233731" lon="6.8329290580"><ele>455.80</ele><time>2014-06-23T18:10:44Z</time></trkpt><trkpt lat="46.4721301664" lon="6.8333094288"><ele>453.88</ele><time>2014-06-23T18:10:54Z</time></trkpt><trkpt lat="46.4721128996" lon="6.8333794177"><ele>453.88</ele><time>2014-06-23T18:10:55Z</time></trkpt><trkpt lat="46.4720574953" lon="6.8335577846"><ele>453.40</ele><time>2014-06-23T18:10:58Z</time></trkpt><trkpt lat="46.4719210379" lon="6.8335399311"><ele>451.96</ele><time>2014-06-23T18:11:04Z</time></trkpt><trkpt lat="46.4719038550" lon="6.8324210308"><ele>448.11</ele><time>2014-06-23T18:11:19Z</time></trkpt><trkpt lat="46.4718652144" lon="6.8312798347"><ele>446.19</ele><time>2014-06-23T18:11:32Z</time></trkpt><trkpt lat="46.4714508969" lon="6.8300359603"><ele>441.38</ele><time>2014-06-23T18:11:46Z</time></trkpt><trkpt lat="46.4708683547" lon="6.8293574452"><ele>436.58</ele><time>2014-06-23T18:11:55Z</time></trkpt><trkpt lat="46.4707645029" lon="6.8290208280"><ele>434.65</ele><time>2014-06-23T18:11:58Z</time></trkpt><trkpt lat="46.4704863075" lon="6.8285987992"><ele>430.33</ele><time>2014-06-23T18:12:04Z</time></trkpt><trkpt lat="46.4703376964" lon="6.8285669480"><ele>428.89</ele><time>2014-06-23T18:12:07Z</time></trkpt><trkpt lat="46.4702615887" lon="6.8287588935"><ele>426.48</ele><time>2014-06-23T18:12:11Z</time></trkpt><trkpt lat="46.4701268077" lon="6.8299278338"><ele>419.75</ele><time>2014-06-23T18:12:24Z</time></trkpt><trkpt lat="46.4700238779" lon="6.8316517398"><ele>410.62</ele><time>2014-06-23T18:12:38Z</time></trkpt><trkpt lat="46.4695842471" lon="6.8339747004"><ele>400.53</ele><time>2014-06-23T18:12:55Z</time></trkpt><trkpt lat="46.4691939857" lon="6.8350910023"><ele>396.68</ele><time>2014-06-23T18:13:04Z</time></trkpt><trkpt lat="46.4687179774" lon="6.8356495723"><ele>394.76</ele><time>2014-06-23T18:13:11Z</time></trkpt><trkpt lat="46.4685502555" lon="6.8357229978"><ele>394.76</ele><time>2014-06-23T18:13:13Z</time></trkpt><trkpt lat="46.4683125447" lon="6.8359700125"><ele>394.28</ele><time>2014-06-23T18:13:17Z</time></trkpt><trkpt lat="46.4682346769" lon="6.8361519836"><ele>393.80</ele><time>2014-06-23T18:13:21Z</time></trkpt><trkpt lat="46.4679117221" lon="6.8361668196"><ele>390.43</ele><time>2014-06-23T18:13:28Z</time></trkpt><trkpt lat="46.4678722434" lon="6.8356503267"><ele>386.59</ele><time>2014-06-23T18:13:34Z</time></trkpt><trkpt lat="46.4680311643" lon="6.8355064094"><ele>386.59</ele><time>2014-06-23T18:13:38Z</time></trkpt><trkpt lat="46.4684108645" lon="6.8349904194"><ele>391.87</ele><time>2014-06-23T18:13:53Z</time></trkpt><trkpt lat="46.4686197415" lon="6.8342709169"><ele>391.87</ele><time>2014-06-23T18:14:07Z</time></trkpt><trkpt lat="46.4686732180" lon="6.8340348825"><ele>391.87</ele><time>2014-06-23T18:14:11Z</time></trkpt><trkpt lat="46.4688626491" lon="6.8330790102"><ele>392.36</ele><time>2014-06-23T18:14:28Z</time></trkpt><trkpt lat="46.4688730426" lon="6.8329717219"><ele>391.87</ele><time>2014-06-23T18:14:31Z</time></trkpt><trkpt lat="46.4688292891" lon="6.8329796009"><ele>391.87</ele><time>2014-06-23T18:14:38Z</time></trkpt><trkpt lat="46.4688034728" lon="6.8331443891"><ele>393.32</ele><time>2014-06-23T18:14:56Z</time></trkpt><trkpt lat="46.4687013812" lon="6.8336025439"><ele>391.39</ele><time>2014-06-23T18:15:05Z</time></trkpt><trkpt lat="46.4686721284" lon="6.8337798212"><ele>390.91</ele><time>2014-06-23T18:15:08Z</time></trkpt><trkpt lat="46.4683959447" lon="6.8349237833"><ele>391.87</ele><time>2014-06-23T18:15:27Z</time></trkpt><trkpt lat="46.4683319069" lon="6.8351095263"><ele>390.91</ele><time>2014-06-23T18:15:30Z</time></trkpt><trkpt lat="46.4682723954" lon="6.8352285493"><ele>390.43</ele><time>2014-06-23T18:15:32Z</time></trkpt><trkpt lat="46.4680917654" lon="6.8354416173"><ele>388.99</ele><time>2014-06-23T18:15:36Z</time></trkpt><trkpt lat="46.4677664638" lon="6.8356382567"><ele>386.11</ele><time>2014-06-23T18:15:41Z</time></trkpt><trkpt lat="46.4672386553" lon="6.8357708585"><ele>385.63</ele><time>2014-06-23T18:15:52Z</time></trkpt><trkpt lat="46.4671063051" lon="6.8357282784"><ele>387.55</ele><time>2014-06-23T18:15:56Z</time></trkpt><trkpt lat="46.4668780658" lon="6.8360349722"><ele>388.03</ele><time>2014-06-23T18:16:04Z</time></trkpt><trkpt lat="46.4670821652" lon="6.8360209744"><ele>388.03</ele><time>2014-06-23T18:16:09Z</time></trkpt><trkpt lat="46.4671164472" lon="6.8359728623"><ele>388.03</ele><time>2014-06-23T18:16:10Z</time></trkpt><trkpt lat="46.4676481113" lon="6.8351670261"><ele>387.55</ele><time>2014-06-23T18:16:26Z</time></trkpt><trkpt lat="46.4683423005" lon="6.8339492194"><ele>387.07</ele><time>2014-06-23T18:16:45Z</time></trkpt><trkpt lat="46.4684282150" lon="6.8326977175"><ele>382.74</ele><time>2014-06-23T18:16:57Z</time></trkpt><trkpt lat="46.4684532769" lon="6.8308126274"><ele>379.86</ele><time>2014-06-23T18:17:13Z</time></trkpt><trkpt lat="46.4684695378" lon="6.8301448412"><ele>379.86</ele><time>2014-06-23T18:17:20Z</time></trkpt><trkpt lat="46.4685253613" lon="6.8297253270"><ele>379.86</ele><time>2014-06-23T18:17:25Z</time></trkpt><trkpt lat="46.4685713779" lon="6.8293582834"><ele>379.86</ele><time>2014-06-23T18:17:30Z</time></trkpt><trkpt lat="46.4684947673" lon="6.8295571022"><ele>379.86</ele><time>2014-06-23T18:17:37Z</time></trkpt><trkpt lat="46.4684117027" lon="6.8299428374"><ele>380.82</ele><time>2014-06-23T18:17:49Z</time></trkpt><trkpt lat="46.4683801029" lon="6.8299300130"><ele>380.34</ele><time>2014-06-23T18:18:03Z</time></trkpt><trkpt lat="46.4683727268" lon="6.8298995029"><ele>378.90</ele><time>2014-06-23T18:18:27Z</time></trkpt><trkpt lat="46.4683475811" lon="6.8298988324"><ele>379.38</ele><time>2014-06-23T18:18:51Z</time></trkpt><trkpt lat="46.4683482517" lon="6.8299042806"><ele>377.45</ele><time>2014-06-23T18:19:19Z</time></trkpt><trkpt lat="46.4683713019" lon="6.8298995029"><ele>377.94</ele><time>2014-06-23T18:19:45Z</time></trkpt><trkpt lat="46.4683702961" lon="6.8299065437"><ele>380.82</ele><time>2014-06-23T18:20:17Z</time></trkpt><trkpt lat="46.4683329966" lon="6.8299016822"><ele>380.34</ele><time>2014-06-23T18:20:44Z</time></trkpt><trkpt lat="46.4683690388" lon="6.8299086392"><ele>378.42</ele><time>2014-06-23T18:21:14Z</time></trkpt><trkpt lat="46.4683670271" lon="6.8299091421"><ele>379.38</ele><time>2014-06-23T18:21:51Z</time></trkpt><trkpt lat="46.4683596510" lon="6.8299107347"><ele>379.38</ele><time>2014-06-23T18:22:23Z</time></trkpt><trkpt lat="46.4683751576" lon="6.8299207930"><ele>380.34</ele><time>2014-06-23T18:22:46Z</time></trkpt><trkpt lat="46.4683894068" lon="6.8299052864"><ele>381.30</ele><time>2014-06-23T18:23:06Z</time></trkpt><trkpt lat="46.4683846291" lon="6.8299209606"><ele>383.22</ele><time>2014-06-23T18:23:21Z</time></trkpt></trkseg></trk></gpx>